createdAt,value
2016-11-17T00:00:58.858Z,10.56
2016-11-17T00:01:58.146Z,10.57
2016-11-17T00:02:59.015Z,10.54
2016-11-17T00:03:58.869Z,10.48
2016-11-17T00:04:59.258Z,10.57
2016-11-17T00:05:58.059Z,10.6
2016-11-17T00:06:58.798Z,10.61
2016-11-17T00:07:59.136Z,10.56
2016-11-17T00:08:59.626Z,10.54
2016-11-17T00:09:59.269Z,10.54
2016-11-17T00:10:59.508Z,10.42
2016-11-17T00:11:58.785Z,10.51
2016-11-17T00:12:59.503Z,10.38
2016-11-17T00:13:58.550Z,10.41
2016-11-17T00:14:57.957Z,10.33
2016-11-17T00:15:59.016Z,10.35
2016-11-17T00:17:02.243Z,10.3
2016-11-17T00:17:59.129Z,10.3
2016-11-17T00:18:58.438Z,10.28
2016-11-17T00:19:59.276Z,10.23
2016-11-17T00:21:00.351Z,10.23
2016-11-17T00:21:59.394Z,10.2
2016-11-17T00:23:00.827Z,10.09
2016-11-17T00:23:59.403Z,10.09
2016-11-17T00:24:58.792Z,10.1
2016-11-17T00:25:59.878Z,10.02
2016-11-17T00:26:59.643Z,9.99
2016-11-17T00:27:59.023Z,10.12
2016-11-17T00:29:00.357Z,10.01
2016-11-17T00:30:00.354Z,10.05
2016-11-17T00:30:59.369Z,10.07
2016-11-17T00:31:59.014Z,10.12
2016-11-17T00:32:58.675Z,10.02
2016-11-17T00:34:00.366Z,10.07
2016-11-17T00:34:58.756Z,9.98
2016-11-17T00:35:58.550Z,9.98
2016-11-17T00:37:00.608Z,10.13
2016-11-17T00:38:00.949Z,9.98
2016-11-17T00:38:58.807Z,9.95
2016-11-17T00:39:59.516Z,10.04
2016-11-17T00:40:59.046Z,10.09
2016-11-17T00:41:59.651Z,10.13
2016-11-17T00:42:59.043Z,10.12
2016-11-17T00:43:58.926Z,10.23
2016-11-17T00:44:58.906Z,10.19
2016-11-17T00:45:58.804Z,10.26
2016-11-17T00:47:00.354Z,10.2
2016-11-17T00:47:59.770Z,10.22
2016-11-17T00:48:59.631Z,10.37
2016-11-17T00:49:59.529Z,10.37
2016-11-17T00:50:59.489Z,10.31
2016-11-17T00:51:59.778Z,10.41
2016-11-17T00:52:58.690Z,10.48
2016-11-17T00:53:58.808Z,10.44
2016-11-17T00:54:58.689Z,10.41
2016-11-17T00:55:59.887Z,10.37
2016-11-17T00:56:58.568Z,10.34
2016-11-17T00:57:58.805Z,10.44
2016-11-17T00:58:58.934Z,10.48
2016-11-17T00:59:59.049Z,10.49
2016-11-17T01:00:58.916Z,10.33
2016-11-17T01:01:59.533Z,10.31
2016-11-17T01:02:59.168Z,10.31
2016-11-17T01:03:59.022Z,10.31
2016-11-17T01:04:59.778Z,10.26
2016-11-17T01:05:59.896Z,10.34
2016-11-17T01:06:59.303Z,10.3
2016-11-17T01:07:58.819Z,10.26
2016-11-17T01:08:59.047Z,10.23
2016-11-17T01:09:58.912Z,10.33
2016-11-17T01:10:59.421Z,10.3
2016-11-17T01:11:59.157Z,10.31
2016-11-17T01:12:59.057Z,10.25
2016-11-17T01:13:59.152Z,10.23
2016-11-17T01:14:59.303Z,10.2
2016-11-17T01:15:59.375Z,10.17
2016-11-17T01:16:59.665Z,10.15
2016-11-17T01:18:00.364Z,10.22
2016-11-17T01:18:59.905Z,10.05
2016-11-17T01:19:59.897Z,10.09
2016-11-17T01:20:59.181Z,10.09
2016-11-17T01:21:59.281Z,10.2
2016-11-17T01:22:59.546Z,10.17
2016-11-17T01:23:59.066Z,10.05
2016-11-17T01:24:59.410Z,10.2
2016-11-17T01:25:59.408Z,10.2
2016-11-17T01:26:59.905Z,10.2
2016-11-17T01:27:58.937Z,10.13
2016-11-17T01:28:59.294Z,10.01
2016-11-17T01:29:59.546Z,10.02
2016-11-17T01:30:59.196Z,10.04
2016-11-17T01:32:00.367Z,10.07
2016-11-17T01:32:59.160Z,10.05
2016-11-17T01:33:59.187Z,10.09
2016-11-17T01:34:59.545Z,10.1
2016-11-17T01:35:59.903Z,9.97
2016-11-17T01:37:00.002Z,10.04
2016-11-17T01:37:59.902Z,10.05
2016-11-17T01:39:00.125Z,9.97
2016-11-17T01:40:00.622Z,9.97
2016-11-17T01:40:59.556Z,9.94
2016-11-17T01:41:59.526Z,9.98
2016-11-17T01:42:59.553Z,9.99
2016-11-17T01:44:00.234Z,10.01
2016-11-17T01:44:59.430Z,9.98
2016-11-17T01:45:59.550Z,9.95
2016-11-17T01:46:59.889Z,9.91
2016-11-17T01:47:59.794Z,9.95
2016-11-17T01:49:00.656Z,9.99
2016-11-17T01:50:00.123Z,9.94
2016-11-17T01:50:59.196Z,9.95
2016-11-17T01:51:59.520Z,9.92
2016-11-17T01:53:00.742Z,9.89
2016-11-17T01:53:59.649Z,9.95
2016-11-17T01:54:59.556Z,9.92
2016-11-17T01:55:59.541Z,10.01
2016-11-17T01:56:59.555Z,10.07
2016-11-17T01:57:59.784Z,9.99
2016-11-17T01:58:59.570Z,9.99
2016-11-17T02:00:00.620Z,9.94
2016-11-17T02:01:00.771Z,9.99
2016-11-17T02:02:00.127Z,9.97
2016-11-17T02:02:59.790Z,9.83
2016-11-17T02:04:00.254Z,9.92
2016-11-17T02:05:00.133Z,9.86
2016-11-17T02:06:00.014Z,9.83
2016-11-17T02:06:59.801Z,9.89
2016-11-17T02:07:59.923Z,9.86
2016-11-17T02:09:00.259Z,9.79
2016-11-17T02:10:00.128Z,9.76
2016-11-17T02:11:01.133Z,9.69
2016-11-17T02:12:00.032Z,9.66
2016-11-17T02:13:00.282Z,9.65
2016-11-17T02:14:00.392Z,9.64
2016-11-17T02:15:00.067Z,9.58
2016-11-17T02:16:00.520Z,9.64
2016-11-17T02:17:00.250Z,9.66
2016-11-17T02:18:00.758Z,9.58
2016-11-17T02:18:59.890Z,9.64
2016-11-17T02:20:00.410Z,9.64
2016-11-17T02:21:00.409Z,9.55
2016-11-17T02:22:00.284Z,9.61
2016-11-17T02:23:00.028Z,9.54
2016-11-17T02:24:00.273Z,9.56
2016-11-17T02:25:00.169Z,9.59
2016-11-17T02:26:00.540Z,9.62
2016-11-17T02:27:00.380Z,9.61
2016-11-17T02:28:00.994Z,9.65
2016-11-17T02:29:00.512Z,9.68
2016-11-17T02:30:01.709Z,9.94
2016-11-17T02:31:01.115Z,9.89
2016-11-17T02:32:00.524Z,9.79
2016-11-17T02:33:00.658Z,9.79
2016-11-17T02:34:01.095Z,9.74
2016-11-17T02:35:00.424Z,9.83
2016-11-17T02:36:00.624Z,9.79
2016-11-17T02:37:00.645Z,9.8
2016-11-17T02:38:01.379Z,9.95
2016-11-17T02:39:01.457Z,9.95
2016-11-17T02:40:01.349Z,9.99
2016-11-17T02:41:01.347Z,9.86
2016-11-17T02:42:00.978Z,9.82
2016-11-17T02:43:00.631Z,9.87
2016-11-17T02:44:00.520Z,9.83
2016-11-17T02:45:00.534Z,9.89
2016-11-17T02:46:00.982Z,9.86
2016-11-17T02:47:01.589Z,9.92
2016-11-17T02:48:01.006Z,9.92
2016-11-17T02:49:01.618Z,9.97
2016-11-17T02:50:00.752Z,9.86
2016-11-17T02:51:01.264Z,9.91
2016-11-17T02:52:01.459Z,9.92
2016-11-17T02:53:01.354Z,9.86
2016-11-17T02:54:01.030Z,9.86
2016-11-17T02:55:01.025Z,9.82
2016-11-17T02:56:00.755Z,9.83
2016-11-17T02:57:00.884Z,9.89
2016-11-17T02:58:01.464Z,9.97
2016-11-17T02:59:01.506Z,9.95
2016-11-17T03:00:01.152Z,9.98
2016-11-17T03:01:01.869Z,10.07
2016-11-17T03:02:01.839Z,10.02
2016-11-17T03:03:01.028Z,9.95
2016-11-17T03:04:02.183Z,10.04
2016-11-17T03:05:01.042Z,9.98
2016-11-17T03:06:00.750Z,10.07
2016-11-17T03:07:02.101Z,10.01
2016-11-17T03:08:01.045Z,10.04
2016-11-17T03:09:02.094Z,10.04
2016-11-17T03:10:01.272Z,10.07
2016-11-17T03:11:00.919Z,10.05
2016-11-17T03:12:01.247Z,10.12
2016-11-17T03:13:01.109Z,10.07
2016-11-17T03:14:01.860Z,10.07
2016-11-17T03:15:00.933Z,10.07
2016-11-17T03:16:02.678Z,10.05
2016-11-17T03:17:02.349Z,10.12
2016-11-17T03:18:01.987Z,10.09
2016-11-17T03:19:01.837Z,10.04
2016-11-17T03:20:01.758Z,10.05
2016-11-17T03:21:04.036Z,9.95
2016-11-17T03:22:02.720Z,9.97
2016-11-17T03:23:02.576Z,9.91
2016-11-17T03:24:02.601Z,10.07
2016-11-17T03:25:03.163Z,10.09
2016-11-17T03:26:01.733Z,9.94
2016-11-17T03:27:02.608Z,9.99
2016-11-17T03:28:03.084Z,9.97
2016-11-17T03:29:03.082Z,9.84
2016-11-17T03:30:03.931Z,9.92
2016-11-17T03:31:02.717Z,9.82
2016-11-17T03:32:02.356Z,9.8
2016-11-17T03:33:01.859Z,9.83
2016-11-17T03:34:02.485Z,9.98
2016-11-17T03:35:03.690Z,9.99
2016-11-17T03:36:02.254Z,9.92
2016-11-17T03:37:03.441Z,10.13
2016-11-17T03:38:05.493Z,10.09
2016-11-17T03:39:04.047Z,10.1
2016-11-17T03:41:02.964Z,10.02
2016-11-17T03:42:04.139Z,10.12
2016-11-17T03:43:03.810Z,10.13
2016-11-17T03:44:02.489Z,10.1
2016-11-17T03:45:03.091Z,10.07
2016-11-17T03:46:01.971Z,10.02
2016-11-17T03:47:04.175Z,10.05
2016-11-17T03:48:02.248Z,10.01
2016-11-17T03:49:02.729Z,10.13
2016-11-17T03:50:02.464Z,10.09
2016-11-17T03:51:03.695Z,10.09
2016-11-17T03:52:03.457Z,10.12
2016-11-17T03:53:03.194Z,10.15
2016-11-17T03:54:01.420Z,10.05
2016-11-17T03:55:02.847Z,9.98
2016-11-17T03:56:03.339Z,10.04
2016-11-17T03:57:02.720Z,9.99
2016-11-17T03:58:02.614Z,10.05
2016-11-17T03:59:02.613Z,10.07
2016-11-17T04:00:02.630Z,9.97
2016-11-17T04:01:02.837Z,10.1
2016-11-17T04:02:02.152Z,9.99
2016-11-17T04:03:02.132Z,10.07
2016-11-17T04:04:02.945Z,9.94
2016-11-17T04:05:02.130Z,10.01
2016-11-17T04:06:01.762Z,10.09
2016-11-17T04:07:02.374Z,10.09
2016-11-17T04:08:01.902Z,10.07
2016-11-17T04:09:02.613Z,9.98
2016-11-17T04:10:02.716Z,10.12
2016-11-17T04:11:03.219Z,10.01
2016-11-17T04:12:02.600Z,10.04
2016-11-17T04:13:02.618Z,10.07
2016-11-17T04:14:03.116Z,10.07
2016-11-17T04:15:02.850Z,9.97
2016-11-17T04:16:02.144Z,9.95
2016-11-17T04:17:02.747Z,9.92
2016-11-17T04:18:02.024Z,9.89
2016-11-17T04:19:02.495Z,9.95
2016-11-17T04:20:02.747Z,9.99
2016-11-17T04:21:02.497Z,9.95
2016-11-17T04:22:03.594Z,9.97
2016-11-17T04:23:02.735Z,9.97
2016-11-17T04:24:02.632Z,9.91
2016-11-17T04:25:02.271Z,9.84
2016-11-17T04:26:02.275Z,9.94
2016-11-17T04:27:02.988Z,9.92
2016-11-17T04:28:02.755Z,10.02
2016-11-17T04:29:02.507Z,10.04
2016-11-17T04:30:02.477Z,10.05
2016-11-17T04:31:02.498Z,10.05
2016-11-17T04:32:02.523Z,9.98
2016-11-17T04:33:02.501Z,10.05
2016-11-17T04:34:03.001Z,9.98
2016-11-17T04:35:02.862Z,9.95
2016-11-17T04:36:02.378Z,9.98
2016-11-17T04:37:02.616Z,9.94
2016-11-17T04:38:02.726Z,9.98
2016-11-17T04:39:02.643Z,9.97
2016-11-17T04:40:02.502Z,9.91
2016-11-17T04:41:02.762Z,9.83
2016-11-17T04:42:02.853Z,9.92
2016-11-17T04:43:02.534Z,9.8
2016-11-17T04:44:02.873Z,9.77
2016-11-17T04:45:03.003Z,9.77
2016-11-17T04:46:02.886Z,9.76
2016-11-17T04:47:02.868Z,9.79
2016-11-17T04:48:02.890Z,9.83
2016-11-17T04:49:02.739Z,9.89
2016-11-17T04:50:02.991Z,9.84
2016-11-17T04:51:02.642Z,9.89
2016-11-17T04:52:02.870Z,9.76
2016-11-17T04:53:02.893Z,9.82
2016-11-17T04:54:02.646Z,9.74
2016-11-17T04:55:02.775Z,9.72
2016-11-17T04:56:02.888Z,9.77
2016-11-17T04:57:03.015Z,9.83
2016-11-17T04:58:03.487Z,9.83
2016-11-17T04:59:02.634Z,9.79
2016-11-17T05:00:02.534Z,9.77
2016-11-17T05:01:03.015Z,9.77
2016-11-17T05:02:02.662Z,9.82
2016-11-17T05:03:02.499Z,9.69
2016-11-17T05:04:03.001Z,9.77
2016-11-17T05:05:02.652Z,9.8
2016-11-17T05:06:02.872Z,9.77
2016-11-17T05:07:02.642Z,9.77
2016-11-17T05:08:03.235Z,9.87
2016-11-17T05:09:03.123Z,9.82
2016-11-17T05:10:02.282Z,9.83
2016-11-17T05:11:02.778Z,9.91
2016-11-17T05:12:03.927Z,9.94
2016-11-17T05:13:04.615Z,9.86
2016-11-17T05:14:03.146Z,9.82
2016-11-17T05:15:03.087Z,9.89
2016-11-17T05:16:04.066Z,9.92
2016-11-17T05:17:02.939Z,9.83
2016-11-17T05:18:02.973Z,9.82
2016-11-17T05:19:03.085Z,9.83
2016-11-17T05:20:03.738Z,9.86
2016-11-17T05:21:03.467Z,9.79
2016-11-17T05:22:04.014Z,9.84
2016-11-17T05:23:03.558Z,9.87
2016-11-17T05:24:03.083Z,9.76
2016-11-17T05:25:03.473Z,9.83
2016-11-17T05:26:02.918Z,9.8
2016-11-17T05:27:03.779Z,9.94
2016-11-17T05:28:03.143Z,9.92
2016-11-17T05:29:04.148Z,9.91
2016-11-17T05:30:03.434Z,9.84
2016-11-17T05:31:04.031Z,9.89
2016-11-17T05:32:02.997Z,9.98
2016-11-17T05:33:03.845Z,9.99
2016-11-17T05:34:03.461Z,9.97
2016-11-17T05:35:03.401Z,10.07
2016-11-17T05:36:03.181Z,10.05
2016-11-17T05:37:03.790Z,9.99
2016-11-17T05:38:04.039Z,9.95
2016-11-17T05:39:03.459Z,9.99
2016-11-17T05:40:04.122Z,9.99
2016-11-17T05:41:03.540Z,9.98
2016-11-17T05:42:04.450Z,10.02
2016-11-17T05:43:04.351Z,10.09
2016-11-17T05:44:04.242Z,10.15
2016-11-17T05:45:03.415Z,10.05
2016-11-17T05:46:03.888Z,10.1
2016-11-17T05:47:04.371Z,10.02
2016-11-17T05:48:03.808Z,10.12
2016-11-17T05:49:03.401Z,10.01
2016-11-17T05:50:04.411Z,9.94
2016-11-17T05:51:03.756Z,9.98
2016-11-17T05:52:03.753Z,9.94
2016-11-17T05:53:03.722Z,9.95
2016-11-17T05:54:04.369Z,9.89
2016-11-17T05:55:05.247Z,9.8
2016-11-17T05:56:03.754Z,9.8
2016-11-17T05:57:03.572Z,9.74
2016-11-17T05:58:03.684Z,9.77
2016-11-17T05:59:03.624Z,9.77
2016-11-17T06:00:03.512Z,9.66
2016-11-17T06:01:03.839Z,9.58
2016-11-17T06:02:03.790Z,9.54
2016-11-17T06:03:04.591Z,9.58
2016-11-17T06:04:04.139Z,9.54
2016-11-17T06:05:03.553Z,9.47
2016-11-17T06:06:03.718Z,9.4
2016-11-17T06:07:05.135Z,9.44
2016-11-17T06:08:04.482Z,9.48
2016-11-17T06:09:04.039Z,9.37
2016-11-17T06:10:03.997Z,9.47
2016-11-17T06:11:04.277Z,9.47
2016-11-17T06:12:04.147Z,9.47
2016-11-17T06:13:03.958Z,9.44
2016-11-17T06:14:04.312Z,9.4
2016-11-17T06:15:03.799Z,9.44
2016-11-17T06:16:03.866Z,9.37
2016-11-17T06:17:04.097Z,9.46
2016-11-17T06:18:03.962Z,9.4
2016-11-17T06:19:04.076Z,9.48
2016-11-17T06:20:03.750Z,9.4
2016-11-17T06:21:05.069Z,9.44
2016-11-17T06:22:04.112Z,9.44
2016-11-17T06:23:04.018Z,9.46
2016-11-17T06:24:05.253Z,9.48
2016-11-17T06:25:05.296Z,9.47
2016-11-17T06:26:05.634Z,9.46
2016-11-17T06:27:04.403Z,9.32
2016-11-17T06:28:03.625Z,9.44
2016-11-17T06:29:04.065Z,9.39
2016-11-17T06:30:04.126Z,9.37
2016-11-17T06:31:04.453Z,9.31
2016-11-17T06:32:04.554Z,9.32
2016-11-17T06:33:04.694Z,9.25
2016-11-17T06:34:04.470Z,9.34
2016-11-17T06:35:08.116Z,9.37
2016-11-17T06:36:04.309Z,9.34
2016-11-17T06:37:04.556Z,9.43
2016-11-17T06:38:04.320Z,9.37
2016-11-17T06:39:04.950Z,9.4
2016-11-17T06:40:04.921Z,9.36
2016-11-17T06:41:04.271Z,9.4
2016-11-17T06:42:06.275Z,9.25
2016-11-17T06:43:05.127Z,9.4
2016-11-17T06:44:04.470Z,9.31
2016-11-17T06:45:05.585Z,9.29
2016-11-17T06:46:04.773Z,9.32
2016-11-17T06:47:04.593Z,9.22
2016-11-17T06:48:04.546Z,9.23
2016-11-17T06:49:05.194Z,9.31
2016-11-17T06:50:04.570Z,9.25
2016-11-17T06:51:05.502Z,9.18
2016-11-17T06:52:04.963Z,9.14
2016-11-17T06:53:05.286Z,9.16
2016-11-17T06:54:04.375Z,9.06
2016-11-17T06:55:05.106Z,9.04
2016-11-17T06:56:04.411Z,9.16
2016-11-17T06:57:05.807Z,9.11
2016-11-17T06:58:05.214Z,9.18
2016-11-17T06:59:04.607Z,9.21
2016-11-17T07:00:05.380Z,9.22
2016-11-17T07:01:04.402Z,9.23
2016-11-17T07:02:04.712Z,9.21
2016-11-17T07:03:05.344Z,9.22
2016-11-17T07:04:04.288Z,9.32
2016-11-17T07:05:07.201Z,9.25
2016-11-17T07:06:05.040Z,9.25
2016-11-17T07:07:05.590Z,9.43
2016-11-17T07:08:05.491Z,9.48
2016-11-17T07:09:05.994Z,9.44
2016-11-17T07:10:05.619Z,9.44
2016-11-17T07:11:06.444Z,9.43
2016-11-17T07:12:06.385Z,9.43
2016-11-17T07:13:06.731Z,9.46
2016-11-17T07:14:05.921Z,9.43
2016-11-17T07:15:05.901Z,9.4
2016-11-17T07:16:06.040Z,9.44
2016-11-17T07:17:07.529Z,9.36
2016-11-17T07:18:07.333Z,9.4
2016-11-17T07:19:06.407Z,9.43
2016-11-17T07:20:06.134Z,9.37
2016-11-17T07:21:07.647Z,9.37
2016-11-17T07:22:05.615Z,9.4
2016-11-17T07:23:06.417Z,9.4
2016-11-17T07:24:06.185Z,9.44
2016-11-17T07:25:06.105Z,9.36
2016-11-17T07:26:07.458Z,9.4
2016-11-17T07:27:06.849Z,9.37
2016-11-17T07:28:06.768Z,9.36
2016-11-17T07:29:07.738Z,9.37
2016-11-17T07:30:05.733Z,9.39
2016-11-17T07:31:06.462Z,9.4
2016-11-17T07:32:05.954Z,9.39
2016-11-17T07:33:06.571Z,9.36
2016-11-17T07:34:06.885Z,9.46
2016-11-17T07:35:06.284Z,9.46
2016-11-17T07:36:05.629Z,9.4
2016-11-17T07:37:05.443Z,9.41
2016-11-17T07:38:04.997Z,9.46
2016-11-17T07:39:05.560Z,9.46
2016-11-17T07:40:07.192Z,9.48
2016-11-17T07:41:06.530Z,9.44
2016-11-17T07:42:07.182Z,9.4
2016-11-17T07:43:06.565Z,9.39
2016-11-17T07:44:05.784Z,9.36
2016-11-17T07:45:06.250Z,9.41
2016-11-17T07:46:05.956Z,9.39
2016-11-17T07:47:05.688Z,9.41
2016-11-17T07:48:05.572Z,9.48
2016-11-17T07:49:05.898Z,9.44
2016-11-17T07:50:05.398Z,9.51
2016-11-17T07:51:06.088Z,9.61
2016-11-17T07:52:06.470Z,9.68
2016-11-17T07:53:05.734Z,9.66
2016-11-17T07:54:05.539Z,9.74
2016-11-17T07:55:06.476Z,9.86
2016-11-17T07:56:06.410Z,9.92
2016-11-17T07:57:05.842Z,9.91
2016-11-17T07:58:05.787Z,10.12
2016-11-17T07:59:06.624Z,10.22
2016-11-17T08:00:06.248Z,10.16
2016-11-17T08:01:06.411Z,10.09
2016-11-17T08:02:06.061Z,10.02
2016-11-17T08:03:06.419Z,10.1
2016-11-17T08:04:06.378Z,10.04
2016-11-17T08:05:06.308Z,10.02
2016-11-17T08:06:05.669Z,9.95
2016-11-17T08:07:05.929Z,9.98
2016-11-17T08:08:05.938Z,9.99
2016-11-17T08:09:06.291Z,9.97
2016-11-17T08:10:05.919Z,9.95
2016-11-17T08:11:06.560Z,9.86
2016-11-17T08:12:06.915Z,9.89
2016-11-17T08:13:06.789Z,9.89
2016-11-17T08:14:06.955Z,9.8
2016-11-17T08:15:07.639Z,9.76
2016-11-17T08:16:05.799Z,9.76
2016-11-17T08:17:06.580Z,9.82
2016-11-17T08:18:05.959Z,9.82
2016-11-17T08:19:05.941Z,9.86
2016-11-17T08:20:05.689Z,9.89
2016-11-17T08:21:05.879Z,9.87
2016-11-17T08:22:06.710Z,9.89
2016-11-17T08:23:06.124Z,9.82
2016-11-17T08:24:06.161Z,9.95
2016-11-17T08:25:07.096Z,9.92
2016-11-17T08:26:06.334Z,9.97
2016-11-17T08:27:06.189Z,10.04
2016-11-17T08:28:06.342Z,10.05
2016-11-17T08:29:06.830Z,10.09
2016-11-17T08:30:06.608Z,10.19
2016-11-17T08:31:06.253Z,10.17
2016-11-17T08:32:06.459Z,10.26
2016-11-17T08:33:06.609Z,10.26
2016-11-17T08:34:05.488Z,10.26
2016-11-17T08:35:05.829Z,10.17
2016-11-17T08:36:06.927Z,10.16
2016-11-17T08:37:06.701Z,10.23
2016-11-17T08:38:06.620Z,10.22
2016-11-17T08:39:06.672Z,10.09
2016-11-17T08:40:07.048Z,10.13
2016-11-17T08:41:06.389Z,10.16
2016-11-17T08:42:06.723Z,10.05
2016-11-17T08:43:07.365Z,10.12
2016-11-17T08:44:06.400Z,10.17
2016-11-17T08:45:06.798Z,10.12
2016-11-17T08:46:07.069Z,10.12
2016-11-17T08:47:07.011Z,10.12
2016-11-17T08:48:06.645Z,10.16
2016-11-17T08:49:07.679Z,10.17
2016-11-17T08:50:06.819Z,10.12
2016-11-17T08:51:06.946Z,10.1
2016-11-17T08:52:07.029Z,10.17
2016-11-17T08:53:07.115Z,10.26
2016-11-17T08:54:06.786Z,10.28
2016-11-17T08:55:06.259Z,10.12
2016-11-17T08:56:06.739Z,10.13
2016-11-17T08:57:07.395Z,10.09
2016-11-17T08:58:07.936Z,10.16
2016-11-17T08:59:07.345Z,9.99
2016-11-17T09:00:07.230Z,10.05
2016-11-17T09:01:06.888Z,10.07
2016-11-17T09:02:07.723Z,10.09
2016-11-17T09:03:07.298Z,10.09
2016-11-17T09:04:07.409Z,10.19
2016-11-17T09:05:07.986Z,10.2
2016-11-17T09:06:06.846Z,10.22
2016-11-17T09:07:07.101Z,10.23
2016-11-17T09:08:07.066Z,10.25
2016-11-17T09:09:07.599Z,10.3
2016-11-17T09:10:07.200Z,10.37
2016-11-17T09:11:06.589Z,10.3
2016-11-17T09:12:07.025Z,10.31
2016-11-17T09:13:07.286Z,10.34
2016-11-17T09:14:07.472Z,10.23
2016-11-17T09:15:06.921Z,10.34
2016-11-17T09:16:07.132Z,10.3
2016-11-17T09:17:06.814Z,10.54
2016-11-17T09:18:06.786Z,10.44
2016-11-17T09:19:07.134Z,10.53
2016-11-17T09:20:07.230Z,10.46
2016-11-17T09:21:07.278Z,10.4
2016-11-17T09:22:06.781Z,10.49
2016-11-17T09:23:07.447Z,10.35
2016-11-17T09:24:07.771Z,10.51
2016-11-17T09:25:07.476Z,10.37
2016-11-17T09:26:07.475Z,10.44
2016-11-17T09:27:07.647Z,10.34
2016-11-17T09:28:06.993Z,10.31
2016-11-17T09:29:08.131Z,10.33
2016-11-17T09:30:07.910Z,10.35
2016-11-17T09:31:07.644Z,10.31
2016-11-17T09:32:07.240Z,10.38
2016-11-17T09:33:07.190Z,10.4
2016-11-17T09:34:07.838Z,10.37
2016-11-17T09:35:07.525Z,10.28
2016-11-17T09:36:07.316Z,10.31
2016-11-17T09:37:07.508Z,10.33
2016-11-17T09:38:07.785Z,10.26
2016-11-17T09:39:07.995Z,10.34
2016-11-17T09:40:07.114Z,10.38
2016-11-17T09:41:07.544Z,10.35
2016-11-17T09:42:07.088Z,10.28
2016-11-17T09:43:07.618Z,10.38
2016-11-17T09:44:07.334Z,10.34
2016-11-17T09:45:08.524Z,10.49
2016-11-17T09:46:07.455Z,10.46
2016-11-17T09:47:07.200Z,10.48
2016-11-17T09:48:08.071Z,10.37
2016-11-17T09:49:08.253Z,10.46
2016-11-17T09:50:08.011Z,10.44
2016-11-17T09:51:07.894Z,10.53
2016-11-17T09:52:07.654Z,10.53
2016-11-17T09:53:09.474Z,10.46
2016-11-17T09:54:07.600Z,10.46
2016-11-17T09:55:07.612Z,10.42
2016-11-17T09:56:07.587Z,10.42
2016-11-17T09:57:08.405Z,10.49
2016-11-17T09:58:08.104Z,10.49
2016-11-17T09:59:07.926Z,10.53
2016-11-17T10:00:07.788Z,10.6
2016-11-17T10:01:07.832Z,10.46
2016-11-17T10:02:07.858Z,10.51
2016-11-17T10:03:07.737Z,10.35
2016-11-17T10:04:07.823Z,10.41
2016-11-17T10:05:07.721Z,10.49
2016-11-17T10:06:08.007Z,10.4
2016-11-17T10:07:08.187Z,10.48
2016-11-17T10:08:08.094Z,10.42
2016-11-17T10:09:08.485Z,10.41
2016-11-17T10:10:08.178Z,10.51
2016-11-17T10:11:08.451Z,10.46
2016-11-17T10:12:07.706Z,10.48
2016-11-17T10:13:08.049Z,10.48
2016-11-17T10:14:08.455Z,10.53
2016-11-17T10:15:07.760Z,10.53
2016-11-17T10:16:08.718Z,10.54
2016-11-17T10:17:08.382Z,10.54
2016-11-17T10:18:07.874Z,10.61
2016-11-17T10:19:08.652Z,10.67
2016-11-17T10:20:08.120Z,10.67
2016-11-17T10:21:08.040Z,10.64
2016-11-17T10:22:08.111Z,10.69
2016-11-17T10:23:08.355Z,10.64
2016-11-17T10:24:08.662Z,10.72
2016-11-17T10:25:08.378Z,10.71
2016-11-17T10:26:08.694Z,10.67
2016-11-17T10:27:08.406Z,10.67
2016-11-17T10:28:08.798Z,10.61
2016-11-17T10:29:09.776Z,10.51
2016-11-17T10:30:07.874Z,10.53
2016-11-17T10:31:08.482Z,10.54
2016-11-17T10:32:09.825Z,10.53
2016-11-17T10:33:09.329Z,10.61
2016-11-17T10:34:09.678Z,10.53
2016-11-17T10:35:08.347Z,10.6
2016-11-17T10:36:08.569Z,10.59
2016-11-17T10:37:07.995Z,10.59
2016-11-17T10:38:08.764Z,10.57
2016-11-17T10:39:08.352Z,10.59
2016-11-17T10:40:09.036Z,10.75
2016-11-17T10:41:08.994Z,10.64
2016-11-17T10:42:08.518Z,10.67
2016-11-17T10:43:08.722Z,10.64
2016-11-17T10:44:09.202Z,10.72
2016-11-17T10:45:09.586Z,10.69
2016-11-17T10:46:08.282Z,10.63
2016-11-17T10:47:09.426Z,10.69
2016-11-17T10:48:09.513Z,10.76
2016-11-17T10:49:08.994Z,10.82
2016-11-17T10:50:08.962Z,10.99
2016-11-17T10:51:08.621Z,10.99
2016-11-17T10:52:09.168Z,11.04
2016-11-17T10:53:09.727Z,10.96
2016-11-17T10:54:09.206Z,10.94
2016-11-17T10:55:08.506Z,10.9
2016-11-17T10:56:08.707Z,10.81
2016-11-17T10:57:09.205Z,10.76
2016-11-17T10:58:08.793Z,10.76
2016-11-17T10:59:08.925Z,10.81
2016-11-17T11:00:09.055Z,10.72
2016-11-17T11:01:09.334Z,10.69
2016-11-17T11:02:09.927Z,10.67
2016-11-17T11:03:09.311Z,10.6
2016-11-17T11:04:09.190Z,10.56
2016-11-17T11:05:09.243Z,10.46
2016-11-17T11:06:09.982Z,10.49
2016-11-17T11:07:09.574Z,10.46
2016-11-17T11:08:09.840Z,10.46
2016-11-17T11:09:09.544Z,10.35
2016-11-17T11:10:09.214Z,10.26
2016-11-17T11:11:09.437Z,10.3
2016-11-17T11:12:09.384Z,10.26
2016-11-17T11:13:09.509Z,10.2
2016-11-17T11:14:09.109Z,10.16
2016-11-17T11:15:09.429Z,10.2
2016-11-17T11:16:11.108Z,10.13
2016-11-17T11:17:09.504Z,10.02
2016-11-17T11:18:10.338Z,10.01
2016-11-17T11:19:09.853Z,9.97
2016-11-17T11:20:09.341Z,9.98
2016-11-17T11:21:09.891Z,9.97
2016-11-17T11:22:09.551Z,9.98
2016-11-17T11:23:09.170Z,9.94
2016-11-17T11:24:09.427Z,9.94
2016-11-17T11:25:09.917Z,9.97
2016-11-17T11:26:09.565Z,9.92
2016-11-17T11:27:09.441Z,9.94
2016-11-17T11:28:09.482Z,9.94
2016-11-17T11:29:09.909Z,10.07
2016-11-17T11:30:10.211Z,10.13
2016-11-17T11:31:09.987Z,10.05
2016-11-17T11:32:10.009Z,10.25
2016-11-17T11:33:09.841Z,10.2
2016-11-17T11:34:10.202Z,10.25
2016-11-17T11:35:09.394Z,10.37
2016-11-17T11:36:09.869Z,10.33
2016-11-17T11:37:09.287Z,10.4
2016-11-17T11:38:10.186Z,10.26
2016-11-17T11:39:09.280Z,10.33
2016-11-17T11:40:09.268Z,10.34
2016-11-17T11:41:10.145Z,10.35
2016-11-17T11:42:09.435Z,10.37
2016-11-17T11:43:09.773Z,10.19
2016-11-17T11:44:10.198Z,10.23
2016-11-17T11:45:09.477Z,10.15
2016-11-17T11:46:10.895Z,10.07
2016-11-17T11:47:10.191Z,10.05
2016-11-17T11:48:09.947Z,10.13
2016-11-17T11:49:09.994Z,10.04
2016-11-17T11:50:09.669Z,10.02
2016-11-17T11:51:09.980Z,10.07
2016-11-17T11:52:10.294Z,10.04
2016-11-17T11:53:09.791Z,10.07
2016-11-17T11:54:10.497Z,10.02
2016-11-17T11:55:10.549Z,10.02
2016-11-17T11:56:09.835Z,9.98
2016-11-17T11:57:09.965Z,9.98
2016-11-17T11:58:10.014Z,9.89
2016-11-17T11:59:09.768Z,9.79
2016-11-17T12:00:10.106Z,9.69
2016-11-17T12:01:09.891Z,9.69
2016-11-17T12:02:10.076Z,9.69
2016-11-17T12:03:10.069Z,9.68
2016-11-17T12:04:09.988Z,9.68
2016-11-17T12:05:10.012Z,9.66
2016-11-17T12:06:10.526Z,9.73
2016-11-17T12:07:10.656Z,9.55
2016-11-17T12:08:10.128Z,9.46
2016-11-17T12:09:10.035Z,9.5
2016-11-17T12:10:10.486Z,9.43
2016-11-17T12:11:09.984Z,9.46
2016-11-17T12:12:10.485Z,9.29
2016-11-17T12:13:09.912Z,9.37
2016-11-17T12:14:10.342Z,9.29
2016-11-17T12:15:11.296Z,9.37
2016-11-17T12:16:10.580Z,9.25
2016-11-17T12:17:10.961Z,9.28
2016-11-17T12:18:11.046Z,9.31
2016-11-17T12:19:11.590Z,9.22
2016-11-17T12:20:10.299Z,9.28
2016-11-17T12:21:10.761Z,9.26
2016-11-17T12:22:10.901Z,9.21
2016-11-17T12:23:10.883Z,9.34
2016-11-17T12:24:10.484Z,9.25
2016-11-17T12:25:09.798Z,9.44
2016-11-17T12:26:10.951Z,9.46
2016-11-17T12:27:10.217Z,9.34
2016-11-17T12:28:10.823Z,9.47
2016-11-17T12:29:11.280Z,9.58
2016-11-17T12:30:10.824Z,9.62
2016-11-17T12:31:10.749Z,9.62
2016-11-17T12:32:10.996Z,9.65
2016-11-17T12:33:10.515Z,9.69
2016-11-17T12:34:11.723Z,9.69
2016-11-17T12:35:10.807Z,9.76
2016-11-17T12:36:10.223Z,9.79
2016-11-17T12:37:10.452Z,9.77
2016-11-17T12:38:10.975Z,9.83
2016-11-17T12:39:10.335Z,10.01
2016-11-17T12:40:11.626Z,9.94
2016-11-17T12:41:10.937Z,9.97
2016-11-17T12:42:10.642Z,10.05
2016-11-17T12:43:11.458Z,10.1
2016-11-17T12:44:10.982Z,10.12
2016-11-17T12:45:10.929Z,10.09
2016-11-17T12:46:11.429Z,10.17
2016-11-17T12:47:10.957Z,10.16
2016-11-17T12:48:11.908Z,10.2
2016-11-17T12:49:10.575Z,10.3
2016-11-17T12:50:10.798Z,10.2
2016-11-17T12:51:11.380Z,10.33
2016-11-17T12:52:10.897Z,10.23
2016-11-17T12:53:11.002Z,10.3
2016-11-17T12:54:10.894Z,10.37
2016-11-17T12:55:11.757Z,10.26
2016-11-17T12:56:11.232Z,10.3
2016-11-17T12:57:12.299Z,10.34
2016-11-17T12:58:11.270Z,10.26
2016-11-17T12:59:10.889Z,10.33
2016-11-17T13:00:10.669Z,10.3
2016-11-17T13:01:11.231Z,10.3
2016-11-17T13:02:11.652Z,10.33
2016-11-17T13:03:11.801Z,10.28
2016-11-17T13:04:11.939Z,10.37
2016-11-17T13:05:11.450Z,10.38
2016-11-17T13:06:11.019Z,10.4
2016-11-17T13:07:10.907Z,10.48
2016-11-17T13:08:11.931Z,10.42
2016-11-17T13:09:12.214Z,10.54